Craig Beach, Ohio
Current Conditions -  °F | °C
As of 4:58 AM on Friday 31 Oct 2014 (Local Time) from KPOV Reporting Station
Overcast Overcast  
Wind Chill: 42°   Ceiling: 4800
Heat Index: 42°   Visibility: 10mi
Dew Point: 35°   Wind: 0mph
Humidity: 74%   Direction: NA
Pressure: 29.96"   Gusts: NA
Location:  41.099°N, 80.9784°W
Report Text: KPOV 310858Z AUTO 00000KT 10SM OVC048 06/01 A2996 RMK AO2 T00580014
Loading
Personal Weather Stations






























Interactive Weather Map
Tropical Storm Tracking
New forecast layout! Learn more

10-Day Weather Forecast

Advertisements
Track Severe Weather on mobile